Time;durP1;ratioP1;P1;durP2;ratioP2;P2;SDS_P1;SDS_P2;PMS_P1;PMS_P2;Temp;Humidity;BMP_temperature;BMP_pressure;BME280_temperature;BME280_humidity;BME280_pressure;Samples;Min_cycle;Max_cycle;Signal;HPM_P1;HPM_P2
2022/11/13 00:00:05;;;;;;;33.35;17.20;;;9.80;99.90;;;;;;5077679;28;20460;-67
2022/11/13 00:02:33;;;;;;;32.15;16.75;;;9.80;99.90;;;;;;5090309;28;20020;-67
2022/11/13 00:04:58;;;;;;;34.08;19.42;;;9.80;99.90;;;;;;5080424;28;20448;-68
2022/11/13 00:07:24;;;;;;;30.83;17.90;;;9.80;99.90;;;;;;5082786;28;20027;-69
2022/11/13 00:09:49;;;;;;;28.95;16.52;;;9.80;99.90;;;;;;5087366;28;20065;-68
2022/11/13 00:12:15;;;;;;;30.25;17.10;;;9.80;99.90;;;;;;5077534;28;20665;-67
2022/11/13 00:14:40;;;;;;;28.83;16.20;;;9.80;99.90;;;;;;5093488;28;20464;-67
2022/11/13 00:17:06;;;;;;;32.00;16.80;;;9.80;99.90;;;;;;5085835;28;20440;-67
2022/11/13 00:19:31;;;;;;;33.20;16.85;;;9.70;99.90;;;;;;5085014;28;20046;-67
2022/11/13 00:21:58;;;;;;;33.13;17.38;;;9.70;99.90;;;;;;5081495;28;20028;-68
2022/11/13 00:24:24;;;;;;;29.13;17.95;;;9.70;99.90;;;;;;5091798;28;20443;-66
2022/11/13 00:26:49;;;;;;;32.03;17.45;;;9.70;99.90;;;;;;5093290;28;20023;-68
2022/11/13 00:29:15;;;;;;;32.63;16.38;;;9.70;99.90;;;;;;5092007;28;20095;-68
2022/11/13 00:31:40;;;;;;;26.65;15.55;;;9.70;99.90;;;;;;5093638;28;20099;-67
2022/11/13 00:34:06;;;;;;;28.88;16.67;;;9.70;99.90;;;;;;5076986;28;20403;-67
2022/11/13 00:36:32;;;;;;;29.10;16.60;;;9.70;99.90;;;;;;5090043;28;20044;-66
2022/11/13 00:38:57;;;;;;;29.95;17.33;;;9.60;99.90;;;;;;5091659;28;20016;-67
2022/11/13 00:41:23;;;;;;;28.08;15.77;;;9.70;99.90;;;;;;5093366;28;20083;-66
2022/11/13 00:43:49;;;;;;;31.30;16.83;;;9.60;99.90;;;;;;5093226;28;20079;-67
2022/11/13 00:46:14;;;;;;;31.40;16.55;;;9.60;99.90;;;;;;5076809;28;20029;-68
2022/11/13 00:48:40;;;;;;;28.92;15.48;;;9.60;99.90;;;;;;5093276;28;20065;-66
2022/11/13 00:51:06;;;;;;;42.53;32.42;;;9.60;99.90;;;;;;5085200;28;20129;-68
2022/11/13 00:53:31;;;;;;;33.78;23.13;;;9.60;99.90;;;;;;5084027;28;20036;-67
2022/11/13 00:55:59;;;;;;;32.97;19.05;;;9.60;99.90;;;;;;5078060;28;20077;-67
2022/11/13 00:58:25;;;;;;;31.25;17.92;;;9.50;99.90;;;;;;5089646;28;20020;-67
2022/11/13 01:00:50;;;;;;;29.52;16.63;;;9.50;99.90;;;;;;5079214;28;20065;-67
2022/11/13 01:03:17;;;;;;;28.25;16.67;;;9.50;99.90;;;;;;5092910;28;20464;-67
2022/11/13 01:05:45;;;;;;;31.77;17.13;;;9.40;99.90;;;;;;5096777;28;20440;-66
2022/11/13 01:08:12;;;;;;;29.92;16.65;;;9.40;99.90;;;;;;5079998;28;20064;-68
2022/11/13 01:10:41;;;;;;;29.70;16.35;;;9.40;99.90;;;;;;5093394;28;20574;-68
2022/11/13 01:13:07;;;;;;;29.00;16.80;;;9.30;99.90;;;;;;5084638;28;20036;-68
2022/11/13 01:15:33;;;;;;;31.77;18.15;;;9.30;99.90;;;;;;5085201;28;20024;-68
2022/11/13 01:17:58;;;;;;;30.60;17.27;;;9.20;99.90;;;;;;5091951;28;20027;-66
2022/11/13 01:20:24;;;;;;;31.90;17.92;;;9.20;99.90;;;;;;5083981;28;20094;-66
2022/11/13 01:22:50;;;;;;;33.45;19.90;;;9.10;99.90;;;;;;5095368;28;20031;-68
2022/11/13 01:25:16;;;;;;;36.90;24.80;;;9.10;99.90;;;;;;5087260;28;20024;-67
2022/11/13 01:27:42;;;;;;;34.13;18.08;;;9.10;99.90;;;;;;5089496;28;20027;-68
2022/11/13 01:30:08;;;;;;;32.72;18.08;;;9.10;99.90;;;;;;5079940;28;20541;-66
2022/11/13 01:32:34;;;;;;;33.25;21.00;;;9.10;99.90;;;;;;5096345;28;20491;-68
2022/11/13 01:35:00;;;;;;;33.80;20.48;;;9.10;99.90;;;;;;5096533;28;20012;-66
2022/11/13 01:37:25;;;;;;;33.58;18.83;;;9.10;99.90;;;;;;5086138;28;20099;-68
2022/11/13 01:39:51;;;;;;;32.28;18.50;;;9.20;99.90;;;;;;5090337;28;20486;-66
2022/11/13 01:42:16;;;;;;;35.60;20.85;;;9.20;99.90;;;;;;5079792;28;20513;-66
2022/11/13 01:44:55;;;;;;;34.20;21.77;;;9.30;99.90;;;;;;5091929;28;20036;-68
2022/11/13 01:47:22;;;;;;;33.15;18.33;;;9.30;99.90;;;;;;5085557;28;20081;-68
2022/11/13 01:49:51;;;;;;;36.42;19.75;;;9.30;99.90;;;;;;5089164;28;20020;-66
2022/11/13 01:52:30;;;;;;;30.17;17.73;;;9.30;99.90;;;;;;5079533;28;20059;-68
2022/11/13 01:55:01;;;;;;;32.00;16.40;;;9.30;99.90;;;;;;5089709;28;20099;-67
2022/11/13 01:57:27;;;;;;;32.95;16.92;;;9.30;99.90;;;;;;5084619;28;20035;-67
2022/11/13 01:59:59;;;;;;;29.77;17.38;;;9.30;99.90;;;;;;5093420;28;20035;-67
2022/11/13 02:02:25;;;;;;;32.30;18.35;;;9.40;99.90;;;;;;5093381;28;20016;-67
2022/11/13 02:04:51;;;;;;;36.35;24.38;;;9.40;99.90;;;;;;5095312;28;20098;-67
2022/11/13 02:07:19;;;;;;;33.58;18.75;;;9.40;99.90;;;;;;5086762;28;20024;-69
2022/11/13 02:09:50;;;;;;;42.15;27.95;;;9.40;99.90;;;;;;5095316;28;20016;-67
2022/11/13 02:12:23;;;;;;;35.20;24.55;;;9.40;99.90;;;;;;5078918;28;20578;-68
2022/11/13 02:14:52;;;;;;;32.13;18.88;;;9.50;99.90;;;;;;5089902;28;20201;-68
2022/11/13 02:17:26;;;;;;;30.95;18.58;;;9.40;99.90;;;;;;5084999;28;20028;-69
2022/11/13 02:19:57;;;;;;;31.10;17.35;;;9.40;99.90;;;;;;5086677;28;20032;-67
2022/11/13 02:22:43;;;;;;;28.38;16.60;;;9.40;99.90;;;;;;5095481;28;20031;-68
2022/11/13 02:25:10;;;;;;;30.98;17.20;;;9.30;99.90;;;;;;5095187;28;20085;-67
2022/11/13 02:27:35;;;;;;;35.70;20.20;;;9.30;99.90;;;;;;5095071;28;20020;-68
2022/11/13 02:30:31;;;;;;;29.20;17.02;;;9.30;99.90;;;;;;5095234;28;20472;-68
2022/11/13 02:32:58;;;;;;;29.55;17.98;;;9.20;99.90;;;;;;5077411;28;20040;-67
2022/11/13 02:35:30;;;;;;;32.15;17.65;;;9.20;99.90;;;;;;5084805;28;20025;-67
2022/11/13 02:37:57;;;;;;;;;;;9.20;99.90;;;;;;5090887;28;20554;-67
2022/11/13 02:40:23;;;;;;;27.90;16.77;;;9.20;99.90;;;;;;5078607;28;19900;-67
2022/11/13 02:42:48;;;;;;;29.13;17.23;;;9.10;99.90;;;;;;5089768;28;20039;-68
2022/11/13 02:45:14;;;;;;;29.63;17.88;;;9.10;99.90;;;;;;5084162;28;20024;-67
2022/11/13 02:47:39;;;;;;;30.67;17.50;;;9.00;99.90;;;;;;5082341;28;20028;-67
2022/11/13 02:50:06;;;;;;;32.83;17.95;;;9.00;99.90;;;;;;5087896;28;20036;-67
2022/11/13 02:52:32;;;;;;;30.05;17.42;;;9.00;99.90;;;;;;5094905;28;20020;-67
2022/11/13 02:54:57;;;;;;;29.75;18.08;;;9.00;99.90;;;;;;5088309;28;20070;-67
2022/11/13 02:57:23;;;;;;;31.83;17.13;;;9.00;99.90;;;;;;5085023;28;20024;-67
2022/11/13 02:59:49;;;;;;;33.25;17.75;;;9.00;99.90;;;;;;5081246;28;20112;-67
2022/11/13 03:02:14;;;;;;;31.65;17.30;;;9.00;99.90;;;;;;5091550;28;20016;-67
2022/11/13 03:04:40;;;;;;;37.63;19.13;;;9.00;99.90;;;;;;5076989;28;20063;-67
2022/11/13 03:07:06;;;;;;;32.40;18.58;;;9.00;99.90;;;;;;5092662;28;20066;-68
2022/11/13 03:09:31;;;;;;;31.85;17.85;;;9.00;99.90;;;;;;5090966;28;20024;-67
2022/11/13 03:11:57;;;;;;;30.15;18.08;;;9.00;99.90;;;;;;5094601;28;20055;-66
2022/11/13 03:14:22;;;;;;;29.60;17.23;;;9.00;99.90;;;;;;5092570;28;20047;-67
2022/11/13 03:16:48;;;;;;;34.22;17.92;;;9.10;99.90;;;;;;5079850;28;20028;-66
2022/11/13 03:19:14;;;;;;;30.80;17.08;;;9.10;99.90;;;;;;5085766;28;20025;-66
2022/11/13 03:21:39;;;;;;;28.55;16.77;;;9.10;99.90;;;;;;5086827;28;20024;-67
2022/11/13 03:24:05;;;;;;;30.00;16.60;;;9.10;99.90;;;;;;5078422;28;20027;-67
2022/11/13 03:26:31;;;;;;;31.95;17.92;;;9.20;99.90;;;;;;5090210;28;20027;-67
2022/11/13 03:28:56;;;;;;;32.53;16.85;;;9.20;99.90;;;;;;5092851;28;20016;-67
2022/11/13 03:31:22;;;;;;;30.42;17.27;;;9.20;99.90;;;;;;5093540;28;20123;-67
2022/11/13 03:33:50;;;;;;;47.85;17.83;;;9.20;99.90;;;;;;5093733;28;20065;-67
2022/11/13 03:36:16;;;;;;;29.38;17.25;;;9.20;99.90;;;;;;5077326;28;20099;-67
2022/11/13 03:38:41;;;;;;;32.83;18.15;;;9.20;99.90;;;;;;5089877;28;20158;-67
2022/11/13 03:41:07;;;;;;;31.15;16.63;;;9.30;99.90;;;;;;5081855;28;20024;-67
2022/11/13 03:43:32;;;;;;;34.13;17.65;;;9.30;99.90;;;;;;5082543;28;20043;-68
2022/11/13 03:45:58;;;;;;;29.63;17.20;;;9.30;99.90;;;;;;5088789;28;20023;-68
2022/11/13 03:48:24;;;;;;;31.75;18.05;;;9.30;99.90;;;;;;5077048;28;20435;-67
2022/11/13 03:50:52;;;;;;;30.17;16.77;;;9.40;99.90;;;;;;5087675;28;20024;-67
2022/11/13 03:53:18;;;;;;;35.90;17.90;;;9.40;99.90;;;;;;5093823;28;20081;-67
2022/11/13 03:55:44;;;;;;;29.38;15.43;;;9.40;99.90;;;;;;5093765;28;20016;-67
2022/11/13 03:58:10;;;;;;;31.58;16.13;;;9.50;99.90;;;;;;5093853;28;20016;-67
2022/11/13 04:00:37;;;;;;;25.23;14.63;;;9.50;99.90;;;;;;5093618;28;20040;-67
2022/11/13 04:03:02;;;;;;;28.25;15.02;;;9.50;99.90;;;;;;5093591;28;20015;-67
2022/11/13 04:05:28;;;;;;;27.73;14.65;;;9.60;99.90;;;;;;5082719;28;20017;-67
2022/11/13 04:07:54;;;;;;;26.98;14.20;;;9.60;99.90;;;;;;5088054;28;20020;-67
2022/11/13 04:10:19;;;;;;;27.73;14.30;;;9.70;99.90;;;;;;5076828;28;20445;-67
2022/11/13 04:12:45;;;;;;;29.80;14.05;;;9.70;99.90;;;;;;5088550;28;20067;-67
2022/11/13 04:15:11;;;;;;;26.92;13.07;;;9.70;99.90;;;;;;5089907;28;20094;-67
2022/11/13 04:17:36;;;;;;;25.73;12.95;;;9.80;99.90;;;;;;5093530;28;20085;-67
2022/11/13 04:20:02;;;;;;;26.60;12.90;;;9.80;99.90;;;;;;5093574;28;20088;-67
2022/11/13 04:22:27;;;;;;;22.95;10.88;;;9.80;99.90;;;;;;5076742;28;20024;-66
2022/11/13 04:24:53;;;;;;;28.55;12.25;;;9.80;99.90;;;;;;5087656;28;20031;-66
2022/11/13 04:27:18;;;;;;;25.40;12.07;;;9.80;99.90;;;;;;5083194;28;20024;-66
2022/11/13 04:29:44;;;;;;;22.02;11.48;;;9.80;99.90;;;;;;5080179;28;20040;-67
2022/11/13 04:32:10;;;;;;;22.58;11.05;;;9.80;99.90;;;;;;5089947;28;20028;-67
2022/11/13 04:34:35;;;;;;;24.55;11.82;;;9.80;99.90;;;;;;5079975;28;20040;-66
2022/11/13 04:37:01;;;;;;;22.45;11.43;;;9.80;99.90;;;;;;5093097;28;20129;-67
2022/11/13 04:39:26;;;;;;;23.35;12.23;;;9.80;99.90;;;;;;5093146;28;20046;-67
2022/11/13 04:44:36;;;;;;;25.63;11.15;;;9.70;99.90;;;;;;5076320;28;20089;-66
2022/11/13 04:47:01;;;;;;;25.95;11.93;;;9.70;99.90;;;;;;5093325;28;20440;-67
2022/11/13 04:49:27;;;;;;;24.92;11.98;;;9.70;99.90;;;;;;5082472;28;20368;-67
2022/11/13 04:51:52;;;;;;;22.42;11.20;;;9.70;99.90;;;;;;5087440;28;20085;-67
2022/11/13 04:54:18;;;;;;;22.10;12.15;;;9.60;99.90;;;;;;5076004;28;20036;-66
2022/11/13 04:56:44;;;;;;;25.33;13.20;;;9.60;99.90;;;;;;5091153;28;20474;-67
2022/11/13 04:59:09;;;;;;;23.20;11.15;;;9.60;99.90;;;;;;5092762;28;20424;-67
2022/11/13 05:01:35;;;;;;;25.60;11.98;;;9.60;99.90;;;;;;5093088;28;20507;-66
2022/11/13 05:04:01;;;;;;;23.88;11.27;;;9.60;99.90;;;;;;5077530;28;20021;-66
2022/11/13 05:06:27;;;;;;;22.20;11.23;;;9.60;99.90;;;;;;5089846;28;20064;-67
2022/11/13 05:08:53;;;;;;;22.48;10.80;;;9.60;99.90;;;;;;5085066;28;20062;-68
2022/11/13 05:11:18;;;;;;;21.75;11.18;;;9.60;99.90;;;;;;5092729;28;20020;-68
2022/11/13 05:13:44;;;;;;;20.35;10.73;;;9.60;99.90;;;;;;5091660;28;20032;-67
2022/11/13 05:16:12;;;;;;;25.20;11.57;;;9.50;99.90;;;;;;5090956;28;20487;-68
2022/11/13 05:18:38;;;;;;;22.58;11.25;;;9.50;99.90;;;;;;5091907;28;20020;-67
2022/11/13 05:21:06;;;;;;;21.10;10.95;;;9.60;99.90;;;;;;5093142;28;20503;-66
2022/11/13 05:23:32;;;;;;;22.20;11.68;;;9.50;99.90;;;;;;5093197;28;20031;-66
2022/11/13 05:26:10;;;;;;;22.70;10.98;;;9.50;99.90;;;;;;5092269;28;20024;-66
2022/11/13 05:28:36;;;;;;;19.05;10.13;;;9.40;99.90;;;;;;5093228;28;20020;-67
2022/11/13 05:31:09;;;;;;;20.63;10.63;;;9.40;99.90;;;;;;5093462;28;20055;-67
2022/11/13 05:33:36;;;;;;;22.48;10.70;;;9.40;99.90;;;;;;5092876;28;20043;-67
2022/11/13 05:36:07;;;;;;;21.40;10.98;;;9.40;99.90;;;;;;5087824;28;20036;-67
2022/11/13 05:38:32;;;;;;;21.23;10.88;;;9.40;99.90;;;;;;5073071;28;20052;-67
2022/11/13 05:41:03;;;;;;;22.33;11.15;;;9.40;99.90;;;;;;5080262;28;20470;-67
2022/11/13 05:43:29;;;;;;;21.33;11.27;;;9.40;99.90;;;;;;5092945;28;20516;-67
2022/11/13 05:46:12;;;;;;;21.70;11.48;;;9.40;99.90;;;;;;5092901;28;20024;-66
2022/11/13 05:48:38;;;;;;;21.90;11.05;;;9.40;99.90;;;;;;5094258;28;20153;-66
2022/11/13 05:51:08;;;;;;;21.20;10.52;;;9.30;99.90;;;;;;5096285;28;20371;-67
2022/11/13 05:53:35;;;;;;;23.25;11.10;;;9.30;99.90;;;;;;5096485;28;20040;-67
2022/11/13 05:56:06;;;;;;;21.48;11.43;;;9.30;99.90;;;;;;5096516;28;20521;-66
2022/11/13 05:58:32;;;;;;;23.73;10.75;;;9.30;99.90;;;;;;5091984;28;20017;-66
2022/11/13 06:01:08;;;;;;;22.10;11.50;;;9.20;99.90;;;;;;5096751;28;20458;-67
2022/11/13 06:03:34;;;;;;;23.08;11.15;;;9.20;99.90;;;;;;5096226;28;20471;-67
2022/11/13 06:06:00;;;;;;;23.27;12.15;;;9.20;99.90;;;;;;5096450;28;20032;-66
2022/11/13 06:08:26;;;;;;;22.02;11.10;;;9.10;99.90;;;;;;5091100;28;20017;-66
2022/11/13 06:10:51;;;;;;;23.17;10.88;;;9.10;99.90;;;;;;5074683;28;20025;-67
2022/11/13 06:13:17;;;;;;;25.00;12.82;;;9.10;99.90;;;;;;5076001;28;20116;-66
2022/11/13 06:15:43;;;;;;;21.98;11.60;;;9.00;99.90;;;;;;5076189;28;20021;-66
2022/11/13 06:18:08;;;;;;;24.10;10.88;;;9.00;99.90;;;;;;5075926;28;20099;-67
2022/11/13 06:20:37;;;;;;;24.05;11.45;;;9.00;99.90;;;;;;5076126;28;20471;-67
2022/11/13 06:23:02;;;;;;;25.85;11.55;;;8.90;99.90;;;;;;5075789;28;20082;-66
2022/11/13 06:25:28;;;;;;;21.35;10.90;;;8.90;99.90;;;;;;5076013;28;20383;-66
2022/11/13 06:27:54;;;;;;;22.27;11.27;;;8.90;99.90;;;;;;5076147;28;20063;-66
2022/11/13 06:30:20;;;;;;;23.27;11.27;;;8.80;99.90;;;;;;5075772;28;20124;-66
2022/11/13 06:32:53;;;;;;;23.45;11.95;;;8.80;99.90;;;;;;5075291;28;20473;-67
2022/11/13 06:35:19;;;;;;;26.63;13.05;;;8.70;99.90;;;;;;5075475;28;20024;-67
2022/11/13 06:37:45;;;;;;;29.52;14.70;;;8.70;99.90;;;;;;5075522;28;20074;-67
2022/11/13 06:40:12;;;;;;;26.33;14.10;;;8.70;99.90;;;;;;5075211;28;20020;-66
2022/11/13 06:42:37;;;;;;;28.67;14.98;;;8.60;99.90;;;;;;5080125;28;20016;-67
2022/11/13 06:45:04;;;;;;;27.75;15.30;;;8.60;99.90;;;;;;5082868;28;20035;-67
2022/11/13 06:47:29;;;;;;;28.45;14.75;;;8.60;99.90;;;;;;5075584;28;20461;-67
2022/11/13 06:49:55;;;;;;;28.10;14.70;;;8.60;99.90;;;;;;5094503;28;20062;-67
2022/11/13 06:52:20;;;;;;;27.60;15.45;;;8.60;99.90;;;;;;5095571;28;20104;-67
2022/11/13 06:54:46;;;;;;;27.08;15.02;;;8.60;99.90;;;;;;5095181;28;20118;-66
2022/11/13 06:57:11;;;;;;;28.10;15.82;;;8.60;99.90;;;;;;5095343;28;20024;-67
2022/11/13 06:59:38;;;;;;;26.67;15.95;;;8.60;99.90;;;;;;5095336;28;20421;-67
2022/11/13 07:02:04;;;;;;;29.52;16.33;;;8.60;99.90;;;;;;5095235;28;20023;-67
2022/11/13 07:04:29;;;;;;;31.05;17.10;;;8.60;99.90;;;;;;5095113;28;20020;-66
2022/11/13 07:06:55;;;;;;;30.95;15.10;;;8.60;99.90;;;;;;5094559;28;20129;-67
2022/11/13 07:09:20;;;;;;;29.42;16.77;;;8.70;99.90;;;;;;5074648;28;20016;-67
2022/11/13 07:11:46;;;;;;;33.28;20.55;;;8.70;99.90;;;;;;5074530;28;20104;-67
2022/11/13 07:14:12;;;;;;;32.00;16.73;;;8.70;99.90;;;;;;5074782;28;20125;-67
2022/11/13 07:16:38;;;;;;;29.63;16.70;;;8.80;99.90;;;;;;5074900;28;20016;-67
2022/11/13 07:19:04;;;;;;;35.63;21.15;;;8.80;99.90;;;;;;5079857;28;20492;-68
2022/11/13 07:21:29;;;;;;;27.52;16.30;;;8.80;99.90;;;;;;5094821;28;20034;-68
2022/11/13 07:23:55;;;;;;;27.33;15.80;;;8.90;99.90;;;;;;5094766;28;20106;-67
2022/11/13 07:26:21;;;;;;;32.75;19.92;;;8.90;99.90;;;;;;5094191;28;20349;-68
2022/11/13 07:28:47;;;;;;;28.65;17.40;;;9.00;99.90;;;;;;5094786;28;20074;-68
2022/11/13 07:31:14;;;;;;;31.05;17.83;;;9.00;99.90;;;;;;5092955;28;20039;-67
2022/11/13 07:33:40;;;;;;;33.22;17.50;;;9.10;99.90;;;;;;5094397;28;20040;-67
2022/11/13 07:36:07;;;;;;;30.48;18.00;;;9.10;99.90;;;;;;5094703;28;20354;-69
2022/11/13 07:38:32;;;;;;;27.08;16.10;;;9.20;99.90;;;;;;5094645;28;20065;-68
2022/11/13 07:40:58;;;;;;;34.65;16.83;;;9.20;99.90;;;;;;5094448;28;20016;-68
2022/11/13 07:43:24;;;;;;;29.02;16.33;;;9.30;99.90;;;;;;5094197;28;20020;-67
2022/11/13 07:45:53;;;;;;;29.27;15.20;;;9.40;99.90;;;;;;5093195;28;20517;-68
2022/11/13 07:48:20;;;;;;;30.83;16.70;;;9.50;99.90;;;;;;5094314;28;20020;-69
2022/11/13 07:50:46;;;;;;;29.30;14.55;;;9.50;99.90;;;;;;5093751;28;20035;-69
2022/11/13 07:53:11;;;;;;;24.80;14.43;;;9.70;99.90;;;;;;5092949;28;20036;-68
2022/11/13 07:55:37;;;;;;;25.08;13.70;;;9.80;99.90;;;;;;5092864;28;20026;-67
2022/11/13 07:58:04;;;;;;;24.30;13.35;;;9.90;99.90;;;;;;5093946;28;20103;-67
2022/11/13 08:00:31;;;;;;;24.65;13.07;;;10.00;99.90;;;;;;5093401;28;20024;-67
2022/11/13 08:02:58;;;;;;;25.10;13.73;;;10.10;99.90;;;;;;5091038;28;20051;-67
2022/11/13 08:05:23;;;;;;;21.25;11.57;;;10.20;99.90;;;;;;5093649;28;20024;-67
2022/11/13 08:07:50;;;;;;;24.50;13.13;;;10.30;99.90;;;;;;5083656;28;20024;-67
2022/11/13 08:10:17;;;;;;;21.73;12.18;;;10.40;99.90;;;;;;5073903;28;20103;-67
2022/11/13 08:12:43;;;;;;;22.13;12.65;;;10.50;99.90;;;;;;5072421;28;20027;-67
2022/11/13 08:15:10;;;;;;;23.90;12.77;;;10.60;99.90;;;;;;5093863;28;20060;-67
2022/11/13 08:17:35;;;;;;;21.40;11.57;;;10.80;99.90;;;;;;5076943;28;20017;-67
2022/11/13 08:20:02;;;;;;;22.13;11.25;;;10.90;99.90;;;;;;5073684;28;20329;-66
2022/11/13 08:22:29;;;;;;;21.38;11.43;;;11.00;99.90;;;;;;5072135;28;20368;-67
2022/11/13 08:24:54;;;;;;;21.23;11.38;;;11.10;99.90;;;;;;5073728;28;20032;-68
2022/11/13 08:27:21;;;;;;;20.80;11.40;;;11.20;99.90;;;;;;5073115;28;20410;-67
2022/11/13 08:29:48;;;;;;;22.58;11.15;;;11.40;99.90;;;;;;5073133;28;20051;-67
2022/11/13 08:32:14;;;;;;;23.80;11.07;;;11.50;99.90;;;;;;5073360;28;20031;-66
2022/11/13 08:34:40;;;;;;;20.65;10.90;;;11.60;99.90;;;;;;5073469;28;20035;-67
2022/11/13 08:37:06;;;;;;;23.25;11.98;;;11.80;99.90;;;;;;5073455;28;20036;-67
2022/11/13 08:39:34;;;;;;;20.20;10.75;;;11.90;99.90;;;;;;5073441;28;20383;-67
2022/11/13 08:41:59;;;;;;;19.65;10.55;;;12.10;99.90;;;;;;5073117;28;20025;-67
2022/11/13 08:44:25;;;;;;;20.02;10.70;;;12.20;99.90;;;;;;5082727;28;20027;-66
2022/11/13 08:46:50;;;;;;;22.98;12.10;;;12.40;99.90;;;;;;5091786;28;20107;-67
2022/11/13 08:49:16;;;;;;;22.25;11.13;;;12.50;99.90;;;;;;5092978;28;20078;-66
2022/11/13 08:51:41;;;;;;;21.05;12.40;;;12.70;99.90;;;;;;5088737;28;20028;-67
2022/11/13 08:54:07;;;;;;;23.85;12.90;;;12.80;99.90;;;;;;5093052;28;20090;-66
2022/11/13 08:56:32;;;;;;;24.45;13.23;;;13.00;99.90;;;;;;5086260;28;20039;-67
2022/11/13 08:58:58;;;;;;;24.85;13.02;;;13.10;99.90;;;;;;5093551;28;20028;-66
2022/11/13 09:01:24;;;;;;;24.15;12.18;;;13.30;99.90;;;;;;5089547;28;20496;-66
2022/11/13 09:03:50;;;;;;;23.15;12.30;;;13.50;99.90;;;;;;5072762;28;20035;-66
2022/11/13 09:06:15;;;;;;;20.60;11.43;;;13.60;99.90;;;;;;5075380;28;20063;-67
2022/11/13 09:08:41;;;;;;;22.38;11.65;;;13.80;99.90;;;;;;5092969;28;20127;-66
2022/11/13 09:11:06;;;;;;;22.20;11.68;;;14.00;99.90;;;;;;5091405;28;20032;-66
2022/11/13 09:13:33;;;;;;;21.48;12.73;;;14.40;99.90;;;;;;5093219;28;20051;-66
2022/11/13 09:16:00;;;;;;;21.95;11.77;;;14.80;99.90;;;;;;5092726;28;20024;-67
2022/11/13 09:18:26;;;;;;;21.63;10.95;;;15.40;99.90;;;;;;5072749;28;20040;-67
2022/11/13 09:20:53;;;;;;;20.88;11.10;;;16.10;99.90;;;;;;5072302;28;20099;-67
2022/11/13 09:23:18;;;;;;;18.80;10.52;;;16.70;99.90;;;;;;5089434;28;20339;-69
2022/11/13 09:25:44;;;;;;;21.40;12.50;;;17.40;99.90;;;;;;5090915;28;20021;-66
2022/11/13 09:28:10;;;;;;;19.65;9.98;;;18.10;99.90;;;;;;5076503;28;20426;-69
2022/11/13 09:30:38;;;;;;;17.13;9.57;;;18.90;99.90;;;;;;5085711;28;20036;-69
2022/11/13 09:33:04;;;;;;;16.35;9.77;;;19.80;99.30;;;;;;5080679;28;20083;-68
2022/11/13 09:35:34;;;;;;;19.00;11.32;;;20.60;98.50;;;;;;5076504;28;20043;-68
2022/11/13 09:38:05;;;;;;;15.50;9.95;;;21.40;97.50;;;;;;5077941;28;20024;-69
2022/11/13 09:40:53;;;;;;;18.63;10.57;;;22.00;95.80;;;;;;5097591;28;20035;-66
2022/11/13 09:43:53;;;;;;;18.27;10.15;;;22.70;95.10;;;;;;5096309;28;20036;-67
2022/11/13 09:46:41;;;;;;;19.35;10.55;;;23.30;93.30;;;;;;5088646;28;20036;-67
2022/11/13 09:49:23;;;;;;;18.40;10.52;;;23.90;92.20;;;;;;5091263;28;20032;-67
2022/11/13 09:51:53;;;;;;;20.58;10.80;;;24.20;91.40;;;;;;5095958;28;20016;-67
2022/11/13 09:54:19;;;;;;;19.38;11.95;;;24.50;91.00;;;;;;5096206;28;20031;-67
2022/11/13 09:57:08;;;;;;;20.65;11.75;;;24.90;90.20;;;;;;5096305;28;20030;-67
2022/11/13 09:59:40;;;;;;;19.95;11.80;;;25.30;89.40;;;;;;5089536;28;20028;-67
2022/11/13 10:02:23;;;;;;;;;;;25.60;85.90;;;;;;5095201;28;20493;-68
2022/11/13 10:05:07;;;;;;;20.88;12.40;;;25.60;84.20;;;;;;5093176;28;19999;-68
2022/11/13 10:07:54;;;;;;;19.23;11.38;;;25.60;82.80;;;;;;5095119;28;20020;-68
2022/11/13 10:10:31;;;;;;;21.83;12.05;;;25.60;81.00;;;;;;5093565;28;20095;-67
2022/11/13 10:12:58;;;;;;;17.75;10.93;;;25.40;80.20;;;;;;5096285;28;20428;-68
2022/11/13 10:15:25;;;;;;;18.67;9.77;;;25.30;80.20;;;;;;5096096;28;20035;-68
2022/11/13 10:18:03;;;;;;;19.40;10.07;;;25.40;79.30;;;;;;5095687;28;20028;-67
2022/11/13 10:20:47;;;;;;;15.48;8.18;;;25.50;78.60;;;;;;5096215;28;20023;-67
2022/11/13 10:23:30;;;;;;;9.50;5.10;;;25.20;78.70;;;;;;5095388;28;20027;-66
2022/11/13 10:26:06;;;;;;;4.70;3.13;;;25.10;76.10;;;;;;5095606;28;20024;-66
2022/11/13 10:28:32;;;;;;;7.82;3.80;;;25.00;73.60;;;;;;5095257;28;20070;-67
2022/11/13 10:30:57;;;;;;;6.38;3.80;;;24.90;74.30;;;;;;5095456;28;20071;-67
2022/11/13 10:33:24;;;;;;;5.82;3.25;;;24.80;73.80;;;;;;5095706;28;20036;-67
2022/11/13 10:36:01;;;;;;;6.43;3.90;;;24.70;73.80;;;;;;5094975;28;20012;-67
2022/11/13 10:38:35;;;;;;;5.70;3.40;;;24.60;73.60;;;;;;5095572;28;20051;-67
2022/11/13 10:41:14;;;;;;;3.80;2.60;;;24.70;73.20;;;;;;5094927;28;20028;-67
2022/11/13 10:44:28;;;;;;;5.07;3.35;;;24.60;72.30;;;;;;5093582;28;20027;-67
2022/11/13 10:47:15;;;;;;;5.20;2.80;;;24.50;73.10;;;;;;5071244;28;20035;-67
2022/11/13 10:49:41;;;;;;;6.75;3.90;;;24.60;72.60;;;;;;5093392;28;20437;-68
2022/11/13 10:52:19;;;;;;;5.90;3.63;;;24.50;71.70;;;;;;5095198;28;20054;-68
2022/11/13 10:54:46;;;;;;;7.90;4.32;;;24.50;73.10;;;;;;5093401;28;20032;-67
2022/11/13 10:57:21;;;;;;;6.93;3.88;;;24.70;73.10;;;;;;5095513;28;20509;-68
2022/11/13 10:59:46;;;;;;;5.65;3.08;;;24.90;70.40;;;;;;5083664;28;20035;-68
2022/11/13 11:02:21;;;;;;;6.72;3.40;;;24.70;70.60;;;;;;5094413;28;20020;-67
2022/11/13 11:04:47;;;;;;;4.07;3.10;;;24.40;72.10;;;;;;5095236;28;20067;-68
2022/11/13 11:07:17;;;;;;;5.50;3.05;;;24.10;71.40;;;;;;5089930;28;20031;-67
2022/11/13 11:09:47;;;;;;;10.35;4.03;;;24.00;71.90;;;;;;5094174;28;20032;-68
2022/11/13 11:12:23;;;;;;;6.95;3.53;;;23.90;72.40;;;;;;5094594;28;20019;-68
2022/11/13 11:15:14;;;;;;;6.32;3.55;;;23.90;71.80;;;;;;5093103;28;20479;-68
2022/11/13 11:17:59;;;;;;;5.80;3.65;;;23.80;73.90;;;;;;5095081;28;20031;-68
2022/11/13 11:20:45;;;;;;;6.22;3.83;;;23.90;72.70;;;;;;5092259;28;20027;-67
2022/11/13 11:23:21;;;;;;;7.38;4.18;;;23.90;74.30;;;;;;5091142;28;20028;-67
2022/11/13 11:25:56;;;;;;;7.45;4.35;;;23.90;73.40;;;;;;5091078;28;20020;-68
2022/11/13 11:28:31;;;;;;;7.90;4.90;;;23.90;72.30;;;;;;5091276;28;20337;-67
2022/11/13 11:31:16;;;;;;;11.65;6.50;;;23.90;73.40;;;;;;5090898;28;20041;-67
2022/11/13 11:33:53;;;;;;;12.40;5.65;;;23.90;73.70;;;;;;5093147;28;20044;-68
2022/11/13 11:36:37;;;;;;;6.95;4.07;;;23.90;73.70;;;;;;5094439;28;20500;-67
2022/11/13 11:39:32;;;;;;;9.10;4.65;;;23.70;73.60;;;;;;5099058;28;20023;-67
2022/11/13 11:42:26;;;;;;;10.88;4.32;;;23.80;74.50;;;;;;5102265;28;20028;-67
2022/11/13 11:45:00;;;;;;;7.20;4.07;;;23.80;74.30;;;;;;5092310;28;20024;-67
2022/11/13 11:47:26;;;;;;;6.63;3.78;;;23.70;73.90;;;;;;5091824;28;20153;-67
2022/11/13 11:49:53;;;;;;;6.07;4.07;;;23.50;74.40;;;;;;5092721;28;20028;-67
2022/11/13 11:52:35;;;;;;;5.72;3.78;;;23.30;74.70;;;;;;5096826;28;20115;-67
2022/11/13 11:55:00;;;;;;;;;;;23.20;75.80;;;;;;5103052;28;20032;-67
2022/11/13 11:58:00;;;;;;;4.93;3.45;;;23.30;75.40;;;;;;5104811;28;20267;-68
2022/11/13 12:00:30;;;;;;;7.30;4.30;;;23.30;75.70;;;;;;5110940;28;20030;-69
2022/11/13 12:03:23;;;;;;;5.55;3.42;;;23.30;76.40;;;;;;5090997;28;20012;-69
2022/11/13 12:06:06;;;;;;;4.72;3.15;;;23.50;75.10;;;;;;5094342;28;20026;-68
2022/11/13 12:08:44;;;;;;;5.68;3.45;;;23.50;75.60;;;;;;5107899;28;20035;-67
2022/11/13 12:11:30;;;;;;;8.27;3.90;;;23.40;75.10;;;;;;5094687;28;20027;-68
2022/11/13 12:14:35;;;;;;;5.30;3.60;;;23.40;75.00;;;;;;5093934;28;20040;-68
2022/11/13 12:17:19;;;;;;;5.50;3.70;;;23.60;74.60;;;;;;5093930;28;20024;-68
2022/11/13 12:20:05;;;;;;;7.15;3.78;;;23.70;74.50;;;;;;5074291;28;20025;-69
2022/11/13 12:22:42;;;;;;;6.68;3.47;;;23.70;74.60;;;;;;5074060;28;20100;-67
2022/11/13 12:25:26;;;;;;;6.03;3.15;;;23.80;74.70;;;;;;5073060;28;20035;-67
2022/11/13 12:28:10;;;;;;;7.13;3.13;;;23.80;74.60;;;;;;5077742;28;20069;-67
2022/11/13 12:31:07;;;;;;;5.15;3.40;;;23.80;74.20;;;;;;5079485;28;20106;-68
2022/11/13 12:33:51;;;;;;;6.43;3.67;;;23.90;74.10;;;;;;5092819;28;20044;-68
2022/11/13 12:36:18;;;;;;;5.57;3.20;;;24.00;74.90;;;;;;5093096;28;20028;-67
2022/11/13 12:39:04;;;;;;;5.43;3.50;;;24.00;74.50;;;;;;5093010;28;20050;-69
2022/11/13 12:41:51;;;;;;;8.63;3.90;;;23.80;72.30;;;;;;5092134;28;20043;-69
2022/11/13 12:44:17;;;;;;;5.53;3.35;;;23.40;73.30;;;;;;5072839;28;20066;-69
2022/11/13 12:46:43;;;;;;;9.43;3.63;;;23.30;74.20;;;;;;5073238;28;20021;-68
2022/11/13 12:49:30;;;;;;;5.38;3.42;;;23.50;74.30;;;;;;5072249;28;20020;-67
2022/11/13 12:52:15;;;;;;;5.68;3.17;;;23.50;73.50;;;;;;5073244;28;20075;-69